createdAt,value
2024-04-26T00:01:55.711Z,11.40
2024-04-26T00:04:23.718Z,12.00
2024-04-26T00:06:51.674Z,10.70
2024-04-26T00:09:19.500Z,11.50
2024-04-26T00:11:47.603Z,9.10
2024-04-26T00:14:15.551Z,10.90
2024-04-26T00:16:43.606Z,12.00
2024-04-26T00:19:11.429Z,11.30
2024-04-26T00:21:45.724Z,11.30
2024-04-26T00:24:18.488Z,12.70
2024-04-26T00:26:49.960Z,12.60
2024-04-26T00:29:18.676Z,12.50
2024-04-26T00:31:46.845Z,15.10
2024-04-26T00:34:15.175Z,13.50
2024-04-26T00:36:42.978Z,14.60
2024-04-26T00:39:11.004Z,12.40
2024-04-26T00:41:38.927Z,13.20
2024-04-26T00:44:12.244Z,14.30
2024-04-26T00:46:44.637Z,10.10
2024-04-26T00:49:13.319Z,11.40
2024-04-26T00:51:43.259Z,13.10
2024-04-26T00:54:12.772Z,10.90
2024-04-26T00:56:42.701Z,10.70
2024-04-26T00:59:11.879Z,10.80
2024-04-26T01:01:40.130Z,11.20
2024-04-26T01:04:08.135Z,10.60
2024-04-26T01:06:36.580Z,10.70
2024-04-26T01:09:04.678Z,14.50
2024-04-26T01:11:32.669Z,17.30
2024-04-26T01:14:00.492Z,20.00
2024-04-26T01:16:29.725Z,19.70
2024-04-26T01:18:58.234Z,23.00
2024-04-26T01:21:26.536Z,19.60
2024-04-26T01:23:54.933Z,16.50
2024-04-26T01:26:22.838Z,13.70
2024-04-26T01:28:50.983Z,12.40
2024-04-26T01:31:20.051Z,15.10
2024-04-26T01:33:47.822Z,13.30
2024-04-26T01:36:15.764Z,12.30
2024-04-26T01:38:43.736Z,11.80
2024-04-26T01:41:11.549Z,10.50
2024-04-26T01:43:39.547Z,11.90
2024-04-26T01:46:07.656Z,12.20
2024-04-26T01:48:35.801Z,14.30
2024-04-26T01:51:04.101Z,12.60
2024-04-26T01:53:32.078Z,12.00
2024-04-26T01:56:00.167Z,12.00
2024-04-26T01:58:27.905Z,10.80
2024-04-26T02:00:55.762Z,12.00
2024-04-26T02:03:23.786Z,12.10
2024-04-26T02:05:51.724Z,10.00
2024-04-26T02:08:19.687Z,11.00
2024-04-26T02:10:47.599Z,13.40
2024-04-26T02:13:15.256Z,13.00
2024-04-26T02:15:43.824Z,15.60
2024-04-26T02:18:12.141Z,12.30
2024-04-26T02:20:40.246Z,13.20
2024-04-26T02:23:08.228Z,12.40
2024-04-26T02:25:36.122Z,13.20
2024-04-26T02:28:04.388Z,14.60
2024-04-26T02:30:32.127Z,15.30
2024-04-26T02:33:01.513Z,12.00
2024-04-26T02:35:29.357Z,13.40
2024-04-26T02:37:57.387Z,12.10
2024-04-26T02:40:25.139Z,15.00
2024-04-26T02:42:53.630Z,13.40
2024-04-26T02:45:21.600Z,14.10
2024-04-26T02:47:49.514Z,14.80
2024-04-26T02:50:17.294Z,14.00
2024-04-26T02:52:44.981Z,11.40
2024-04-26T02:55:13.062Z,12.80
2024-04-26T02:57:41.007Z,12.90
2024-04-26T03:00:09.638Z,14.30
2024-04-26T03:02:37.852Z,10.90
2024-04-26T03:05:06.018Z,12.00
2024-04-26T03:07:33.867Z,10.90
2024-04-26T03:10:01.757Z,13.90
2024-04-26T03:12:29.554Z,13.70
2024-04-26T03:14:57.743Z,12.70
2024-04-26T03:17:26.461Z,10.20
2024-04-26T03:19:54.501Z,12.70
2024-04-26T03:22:22.267Z,11.50
2024-04-26T03:24:50.088Z,14.80
2024-04-26T03:27:17.867Z,11.30
2024-04-26T03:29:45.720Z,17.40
2024-04-26T03:32:13.706Z,15.10
2024-04-26T03:34:41.789Z,12.90
2024-04-26T03:37:09.666Z,12.90
2024-04-26T03:39:37.425Z,13.60
2024-04-26T03:42:05.541Z,15.50
2024-04-26T03:44:34.024Z,11.60
2024-04-26T03:47:01.925Z,14.20
2024-04-26T03:49:30.035Z,12.90
2024-04-26T03:51:58.304Z,16.20
2024-04-26T03:54:25.933Z,13.30
2024-04-26T03:56:53.753Z,16.20
2024-04-26T03:59:21.433Z,13.00
2024-04-26T04:01:49.634Z,12.60
2024-04-26T04:04:17.834Z,13.20
2024-04-26T04:06:46.327Z,13.10
2024-04-26T04:09:14.299Z,12.00
2024-04-26T04:11:42.323Z,13.80
2024-04-26T04:14:10.322Z,15.40
2024-04-26T04:16:38.270Z,12.40
2024-04-26T04:19:06.194Z,10.80
2024-04-26T04:21:34.228Z,13.80
2024-04-26T04:24:02.237Z,12.20
2024-04-26T04:26:30.069Z,14.20
2024-04-26T04:28:59.033Z,16.00
2024-04-26T04:31:26.820Z,10.90
2024-04-26T04:33:55.050Z,12.80
2024-04-26T04:36:22.978Z,12.30
2024-04-26T04:38:50.904Z,9.30
2024-04-26T04:41:18.630Z,11.20
2024-04-26T04:43:46.517Z,10.50
2024-04-26T04:46:14.403Z,12.80
2024-04-26T04:48:42.391Z,9.40
2024-04-26T04:51:10.626Z,12.90
2024-04-26T04:53:39.390Z,11.80
2024-04-26T04:56:07.599Z,11.60
2024-04-26T04:58:35.430Z,14.20
2024-04-26T05:01:03.248Z,15.60
2024-04-26T05:03:31.417Z,11.60
2024-04-26T05:05:59.355Z,12.90
2024-04-26T05:08:27.309Z,12.20
2024-04-26T05:10:56.964Z,14.70
2024-04-26T05:13:24.757Z,14.70
2024-04-26T05:15:52.731Z,11.30
2024-04-26T05:18:20.713Z,14.70
2024-04-26T05:20:48.718Z,12.70
2024-04-26T05:23:16.404Z,11.30
2024-04-26T05:25:44.308Z,11.50
2024-04-26T05:28:12.084Z,12.00
2024-04-26T05:30:39.869Z,10.90
2024-04-26T05:33:08.039Z,14.20
2024-04-26T05:35:36.189Z,11.70
2024-04-26T05:38:04.134Z,14.30
2024-04-26T05:40:32.281Z,10.40
2024-04-26T05:43:00.264Z,14.20
2024-04-26T05:45:28.095Z,10.50
2024-04-26T05:47:56.178Z,12.30
2024-04-26T05:50:25.938Z,12.10
2024-04-26T05:52:53.690Z,11.90
2024-04-26T05:55:21.980Z,11.20
2024-04-26T05:57:50.070Z,12.00
2024-04-26T06:00:18.388Z,12.80
2024-04-26T06:02:48.654Z,13.80
2024-04-26T06:05:16.629Z,15.10
2024-04-26T06:07:44.533Z,13.30
2024-04-26T06:10:12.423Z,16.30
2024-04-26T06:12:42.951Z,17.70
2024-04-26T06:15:10.880Z,17.20
2024-04-26T06:17:39.107Z,16.60
2024-04-26T06:20:08.189Z,16.00
2024-04-26T06:22:36.056Z,11.30
2024-04-26T06:25:05.091Z,13.30
2024-04-26T06:27:34.957Z,12.00
2024-04-26T06:30:06.796Z,18.90
2024-04-26T06:32:34.906Z,36.50
2024-04-26T06:35:02.938Z,18.90
2024-04-26T06:37:33.027Z,13.10
2024-04-26T06:40:00.893Z,15.00
2024-04-26T06:42:29.047Z,15.10
2024-04-26T06:44:57.163Z,15.00
2024-04-26T06:47:25.247Z,14.90
2024-04-26T06:49:53.397Z,14.90
2024-04-26T06:52:21.515Z,10.90
2024-04-26T06:54:51.914Z,14.20
2024-04-26T06:57:21.497Z,10.20
2024-04-26T06:59:49.988Z,12.70
2024-04-26T07:02:18.355Z,11.40
2024-04-26T07:04:46.689Z,8.20
2024-04-26T07:07:14.583Z,12.60
2024-04-26T07:09:42.631Z,11.30
2024-04-26T07:12:13.054Z,11.00
2024-04-26T07:14:41.579Z,11.40
2024-04-26T07:17:10.229Z,11.90
2024-04-26T07:19:40.738Z,10.70
2024-04-26T07:22:09.963Z,11.70
2024-04-26T07:24:38.217Z,11.60
2024-04-26T07:27:06.575Z,9.80
2024-04-26T07:29:34.971Z,9.80
2024-04-26T07:32:03.285Z,11.20
2024-04-26T07:34:31.410Z,9.80
2024-04-26T07:36:59.386Z,8.80
2024-04-26T07:39:27.283Z,8.50
2024-04-26T07:41:55.271Z,10.70
2024-04-26T07:44:23.043Z,9.30
2024-04-26T07:46:51.130Z,10.30
2024-04-26T07:49:19.278Z,8.00
2024-04-26T07:51:47.304Z,8.40
2024-04-26T07:54:15.259Z,7.80
2024-04-26T07:56:43.330Z,8.60
2024-04-26T07:59:11.184Z,9.40
2024-04-26T08:01:39.311Z,8.00
2024-04-26T08:04:07.502Z,7.60
2024-04-26T08:06:36.700Z,8.60
2024-04-26T08:09:04.468Z,7.80
2024-04-26T08:11:34.173Z,7.20
2024-04-26T08:14:02.480Z,7.00
2024-04-26T08:16:30.551Z,7.20
2024-04-26T08:18:58.427Z,6.50
2024-04-26T08:21:26.628Z,8.30
2024-04-26T08:23:56.667Z,8.50
2024-04-26T08:26:24.488Z,7.80
2024-04-26T08:28:52.281Z,6.80
2024-04-26T08:31:22.796Z,6.40
2024-04-26T08:33:50.906Z,6.70
2024-04-26T08:36:19.237Z,6.70
2024-04-26T08:38:48.724Z,5.90
2024-04-26T08:41:16.717Z,6.10
2024-04-26T08:43:44.592Z,7.60
2024-04-26T08:46:12.482Z,6.30
2024-04-26T08:48:42.265Z,7.40
2024-04-26T08:51:12.889Z,6.70
2024-04-26T08:53:41.859Z,6.50
2024-04-26T08:56:14.163Z,6.70
2024-04-26T08:58:44.233Z,5.60
2024-04-26T09:01:12.107Z,5.40
2024-04-26T09:03:40.447Z,5.40
2024-04-26T09:06:17.574Z,6.10
2024-04-26T09:08:45.932Z,5.40
2024-04-26T09:11:17.634Z,5.40
2024-04-26T09:13:45.673Z,6.00
2024-04-26T09:16:13.589Z,5.90
2024-04-26T09:18:41.425Z,8.80
2024-04-26T09:21:10.012Z,8.40
2024-04-26T09:23:38.809Z,5.60
2024-04-26T09:26:08.246Z,5.70
2024-04-26T09:28:41.071Z,5.50
2024-04-26T09:31:08.969Z,5.10
2024-04-26T09:33:39.028Z,5.30
2024-04-26T09:36:07.745Z,5.30
2024-04-26T09:38:40.006Z,5.10
2024-04-26T09:41:08.836Z,6.20
2024-04-26T09:43:38.876Z,7.20
2024-04-26T09:46:08.461Z,5.90
2024-04-26T09:48:39.502Z,6.50
2024-04-26T09:51:09.923Z,6.10
2024-04-26T09:53:42.423Z,6.80
2024-04-26T09:56:11.115Z,5.00
2024-04-26T09:58:39.674Z,5.80
2024-04-26T10:01:10.238Z,6.80
2024-04-26T10:03:42.250Z,6.30
2024-04-26T10:06:14.682Z,5.90
2024-04-26T10:08:42.973Z,5.90
2024-04-26T10:11:18.948Z,7.40
2024-04-26T10:13:58.023Z,6.10
2024-04-26T10:16:33.238Z,5.50
2024-04-26T10:19:01.306Z,5.60
2024-04-26T10:21:30.795Z,8.30
2024-04-26T10:24:03.583Z,5.60
2024-04-26T10:26:31.787Z,5.30
2024-04-26T10:29:09.271Z,5.20
2024-04-26T10:31:37.724Z,4.90
2024-04-26T10:34:18.157Z,6.90
2024-04-26T10:36:47.911Z,6.30
2024-04-26T10:39:29.055Z,5.20
2024-04-26T10:41:57.597Z,5.50
2024-04-26T10:44:27.022Z,5.20
2024-04-26T10:46:59.229Z,4.50
2024-04-26T10:49:28.617Z,5.10
2024-04-26T10:52:05.721Z,5.50
2024-04-26T10:54:35.103Z,5.90
2024-04-26T10:57:03.008Z,6.80
2024-04-26T10:59:31.751Z,4.90
2024-04-26T11:02:02.005Z,4.80
2024-04-26T11:04:34.791Z,6.10
2024-04-26T11:07:18.965Z,4.90
2024-04-26T11:09:48.775Z,4.50
2024-04-26T11:12:18.151Z,7.20
2024-04-26T11:14:46.023Z,4.40
2024-04-26T11:17:14.745Z,5.80
2024-04-26T11:19:45.898Z,5.70
2024-04-26T11:22:13.766Z,4.80
2024-04-26T11:24:42.121Z,5.00
2024-04-26T11:27:13.093Z,4.60
2024-04-26T11:29:41.146Z,5.10
2024-04-26T11:32:09.202Z,5.00
2024-04-26T11:34:37.230Z,5.60
2024-04-26T11:37:07.210Z,4.80
2024-04-26T11:39:35.111Z,7.10
2024-04-26T11:42:03.091Z,6.40
2024-04-26T11:44:31.098Z,5.60
2024-04-26T11:46:59.207Z,4.40
2024-04-26T11:49:27.581Z,5.40
2024-04-26T11:51:57.735Z,4.50
2024-04-26T11:54:25.786Z,5.10
2024-04-26T11:56:53.805Z,4.60
2024-04-26T11:59:21.711Z,4.10
2024-04-26T12:01:49.641Z,6.90
2024-04-26T12:04:18.272Z,4.80
2024-04-26T12:06:46.136Z,6.20
2024-04-26T12:09:14.480Z,4.90
2024-04-26T12:11:46.345Z,4.40
2024-04-26T12:14:14.726Z,4.30
2024-04-26T12:16:49.282Z,5.30
2024-04-26T12:19:18.127Z,6.60
2024-04-26T12:21:46.522Z,4.30
2024-04-26T12:24:15.152Z,5.60
2024-04-26T12:26:43.273Z,6.00
2024-04-26T12:29:14.560Z,7.60
2024-04-26T12:31:42.547Z,4.50
2024-04-26T12:34:10.820Z,5.00
2024-04-26T12:36:42.314Z,5.80
2024-04-26T12:39:14.031Z,4.50
2024-04-26T12:41:45.703Z,4.50
2024-04-26T12:44:14.350Z,4.70
2024-04-26T12:46:43.843Z,5.50
2024-04-26T12:49:18.401Z,7.30
2024-04-26T12:51:46.815Z,5.00
2024-04-26T12:54:15.893Z,4.70
2024-04-26T12:59:12.519Z,5.30
2024-04-26T13:01:40.275Z,4.50
2024-04-26T13:04:08.618Z,4.20
2024-04-26T13:06:38.132Z,4.50
2024-04-26T13:09:06.303Z,4.70
2024-04-26T13:11:34.268Z,4.70
2024-04-26T13:14:02.747Z,4.50
2024-04-26T13:16:30.618Z,5.50
2024-04-26T13:18:58.819Z,6.00
2024-04-26T13:21:26.968Z,5.20
2024-04-26T13:23:54.991Z,3.30
2024-04-26T13:26:23.085Z,5.20
2024-04-26T13:28:50.912Z,3.70
2024-04-26T13:31:18.864Z,4.30
2024-04-26T13:33:46.879Z,3.60
2024-04-26T13:36:14.979Z,4.10
2024-04-26T13:38:43.273Z,4.20
2024-04-26T13:41:15.704Z,4.00
2024-04-26T13:43:43.596Z,3.00
2024-04-26T13:46:11.859Z,4.30
2024-04-26T13:48:42.107Z,3.60
2024-04-26T13:51:10.709Z,4.30
2024-04-26T13:53:42.554Z,3.70
2024-04-26T13:56:12.330Z,4.40
2024-04-26T13:58:41.519Z,4.40
2024-04-26T14:01:10.373Z,4.50
2024-04-26T14:03:39.506Z,4.50
2024-04-26T14:06:07.828Z,5.30
2024-04-26T14:08:35.740Z,4.80
2024-04-26T14:11:04.642Z,3.90
2024-04-26T14:13:32.815Z,4.10
2024-04-26T14:16:00.580Z,3.70
2024-04-26T14:18:28.834Z,4.10
2024-04-26T14:20:56.857Z,5.40
2024-04-26T14:23:24.795Z,3.70
2024-04-26T14:25:52.804Z,4.40
2024-04-26T14:28:20.738Z,4.40
2024-04-26T14:30:48.649Z,5.10
2024-04-26T14:33:16.988Z,3.10
2024-04-26T14:35:44.828Z,4.00
2024-04-26T14:38:12.919Z,4.80
2024-04-26T14:40:40.795Z,3.90
2024-04-26T14:43:09.035Z,4.80
2024-04-26T14:45:38.484Z,5.40
2024-04-26T14:48:06.981Z,5.70
2024-04-26T14:50:37.488Z,3.40
2024-04-26T14:53:06.705Z,5.50
2024-04-26T14:55:34.767Z,4.70
2024-04-26T14:58:02.681Z,4.00
2024-04-26T15:00:30.707Z,3.60
2024-04-26T15:02:59.718Z,3.50
2024-04-26T15:05:27.488Z,5.20
2024-04-26T15:07:55.539Z,4.20
2024-04-26T15:10:24.303Z,4.50
2024-04-26T15:12:52.266Z,4.30
2024-04-26T15:15:20.110Z,3.20
2024-04-26T15:17:47.808Z,5.50
2024-04-26T15:20:16.309Z,4.80
2024-04-26T15:22:43.995Z,4.90
2024-04-26T15:25:13.308Z,4.40
2024-04-26T15:27:43.396Z,6.80
2024-04-26T15:30:11.439Z,5.50
2024-04-26T15:32:39.736Z,4.70
2024-04-26T15:35:08.012Z,4.40
2024-04-26T15:37:35.848Z,6.20
2024-04-26T15:40:04.921Z,6.20
2024-04-26T15:42:32.683Z,3.70
2024-04-26T15:45:01.088Z,5.70
2024-04-26T15:47:29.265Z,9.20
2024-04-26T15:49:57.220Z,6.90
2024-04-26T15:52:25.132Z,4.90
2024-04-26T15:54:54.689Z,5.00
2024-04-26T15:57:22.991Z,6.80
2024-04-26T15:59:50.913Z,5.50
2024-04-26T16:02:21.253Z,7.30
2024-04-26T16:04:49.286Z,6.20
2024-04-26T16:07:17.417Z,6.50
2024-04-26T16:09:45.316Z,5.30
2024-04-26T16:12:14.594Z,6.10
2024-04-26T16:14:43.365Z,6.40
2024-04-26T16:17:11.316Z,5.90
2024-04-26T16:19:39.247Z,5.20
2024-04-26T16:22:09.019Z,5.50
2024-04-26T16:24:40.102Z,9.00
2024-04-26T16:27:07.926Z,6.10
2024-04-26T16:29:36.500Z,10.00
2024-04-26T16:32:04.811Z,11.40
2024-04-26T16:34:34.733Z,10.10
2024-04-26T16:37:02.445Z,8.10
2024-04-26T16:39:30.141Z,7.40
2024-04-26T16:41:57.762Z,9.30
2024-04-26T16:44:28.470Z,9.10
2024-04-26T16:46:56.314Z,8.50
2024-04-26T16:49:24.190Z,7.30
2024-04-26T16:51:52.447Z,9.70
2024-04-26T16:54:20.402Z,8.20
2024-04-26T16:56:48.422Z,8.10
2024-04-26T16:59:16.545Z,10.50
2024-04-26T17:01:44.513Z,7.30
2024-04-26T17:04:14.217Z,7.30
2024-04-26T17:06:45.583Z,6.10
2024-04-26T17:09:13.670Z,5.40
2024-04-26T17:11:45.152Z,5.50
2024-04-26T17:14:12.920Z,7.30
2024-04-26T17:16:40.970Z,5.80
2024-04-26T17:19:09.217Z,6.30
2024-04-26T17:21:43.892Z,5.50
2024-04-26T17:24:12.319Z,5.90
2024-04-26T17:26:40.078Z,5.20
2024-04-26T17:29:07.943Z,7.00
2024-04-26T17:31:39.577Z,5.30
2024-04-26T17:34:07.487Z,7.60
2024-04-26T17:36:35.422Z,6.10
2024-04-26T17:39:03.222Z,7.10
2024-04-26T17:41:32.381Z,7.00
2024-04-26T17:44:00.326Z,7.20
2024-04-26T17:46:29.892Z,6.80
2024-04-26T17:48:57.757Z,6.60
2024-04-26T17:51:25.739Z,6.60
2024-04-26T17:53:53.700Z,6.20
2024-04-26T17:56:24.711Z,6.40
2024-04-26T17:58:53.664Z,9.00
2024-04-26T18:01:22.739Z,6.40
2024-04-26T18:03:50.689Z,6.40
2024-04-26T18:06:21.349Z,6.50
2024-04-26T18:08:49.292Z,7.10
2024-04-26T18:11:17.501Z,6.40
2024-04-26T18:13:45.472Z,8.10
2024-04-26T18:16:19.185Z,7.20
2024-04-26T18:18:47.000Z,6.80
2024-04-26T18:21:22.561Z,8.40
2024-04-26T18:23:52.159Z,7.00
2024-04-26T18:26:20.030Z,7.90
2024-04-26T18:28:47.940Z,7.40
2024-04-26T18:31:15.732Z,7.30
2024-04-26T18:33:47.371Z,9.50
2024-04-26T18:36:20.150Z,6.70
2024-04-26T18:38:50.121Z,7.70
2024-04-26T18:41:19.544Z,6.80
2024-04-26T18:43:47.545Z,6.80
2024-04-26T18:46:15.878Z,5.70
2024-04-26T18:48:45.933Z,6.20
2024-04-26T18:53:43.769Z,7.70
2024-04-26T18:56:13.058Z,6.70
2024-04-26T18:58:42.366Z,6.20
2024-04-26T19:01:10.863Z,6.00
2024-04-26T19:03:38.914Z,6.10
2024-04-26T19:06:06.807Z,6.20
2024-04-26T19:08:35.144Z,7.50
2024-04-26T19:11:03.320Z,13.00
2024-04-26T19:13:31.254Z,9.50
2024-04-26T19:15:59.474Z,8.70
2024-04-26T19:18:27.621Z,7.20
2024-04-26T19:20:55.584Z,9.60
2024-04-26T19:23:23.460Z,9.70
2024-04-26T19:25:51.426Z,6.60
2024-04-26T19:28:19.421Z,6.20
2024-04-26T19:30:51.512Z,6.80
2024-04-26T19:33:19.725Z,9.10
2024-04-26T19:35:47.791Z,7.70
2024-04-26T19:38:18.969Z,10.00
2024-04-26T19:40:47.280Z,7.00
2024-04-26T19:43:15.724Z,9.30
2024-04-26T19:45:44.961Z,8.30
2024-04-26T19:48:13.697Z,8.40
2024-04-26T19:50:41.726Z,7.60
2024-04-26T19:53:28.630Z,7.20
2024-04-26T19:56:14.093Z,7.30
2024-04-26T19:58:45.138Z,6.20
2024-04-26T20:01:13.728Z,7.80
2024-04-26T20:03:44.116Z,6.00
2024-04-26T20:06:12.430Z,6.10
2024-04-26T20:08:41.233Z,6.60
2024-04-26T20:11:13.000Z,6.70
2024-04-26T20:13:41.442Z,6.50
2024-04-26T20:16:24.432Z,7.30
2024-04-26T20:18:54.307Z,6.60
2024-04-26T20:21:22.550Z,5.40
2024-04-26T20:23:51.248Z,4.60
2024-04-26T20:26:19.808Z,5.20
2024-04-26T20:28:49.569Z,5.70
2024-04-26T20:31:18.839Z,7.10
2024-04-26T20:33:51.307Z,9.40
2024-04-26T20:36:19.256Z,6.80
2024-04-26T20:38:47.227Z,5.20
2024-04-26T20:41:16.913Z,6.20
2024-04-26T20:43:45.398Z,5.40
2024-04-26T20:46:14.772Z,12.20
2024-04-26T20:48:43.608Z,12.90
2024-04-26T20:51:12.101Z,9.30
2024-04-26T20:53:41.493Z,7.00
2024-04-26T20:56:17.135Z,5.90
2024-04-26T20:58:49.958Z,9.70
2024-04-26T21:01:18.091Z,10.30
2024-04-26T21:03:46.310Z,5.60
2024-04-26T21:06:14.916Z,6.50
2024-04-26T21:08:44.260Z,18.50
2024-04-26T21:11:19.588Z,15.20
2024-04-26T21:13:48.289Z,6.30
2024-04-26T21:16:17.492Z,7.00
2024-04-26T21:18:46.918Z,6.50
2024-04-26T21:21:19.294Z,5.70
2024-04-26T21:23:48.188Z,5.90
2024-04-26T21:26:45.610Z,5.90
2024-04-26T21:29:13.683Z,7.00
2024-04-26T21:31:42.273Z,7.30
2024-04-26T21:34:10.360Z,7.10
2024-04-26T21:36:44.692Z,8.00
2024-04-26T21:39:17.443Z,7.00
2024-04-26T21:41:45.540Z,5.40
2024-04-26T21:44:13.407Z,6.40
2024-04-26T21:46:52.682Z,5.50
2024-04-26T21:49:21.392Z,6.60
2024-04-26T21:51:49.413Z,5.60
2024-04-26T21:54:17.256Z,4.60
2024-04-26T21:56:45.239Z,6.00
2024-04-26T21:59:16.573Z,7.60
2024-04-26T22:01:47.129Z,6.60
2024-04-26T22:04:16.110Z,6.30
2024-04-26T22:06:44.063Z,5.00
2024-04-26T22:09:13.246Z,7.70
2024-04-26T22:11:41.481Z,5.60
2024-04-26T22:14:09.641Z,7.30
2024-04-26T22:16:38.022Z,4.90
2024-04-26T22:19:05.865Z,9.10
2024-04-26T22:21:34.727Z,6.20
2024-04-26T22:24:02.645Z,7.80
2024-04-26T22:26:30.377Z,9.00
2024-04-26T22:28:58.514Z,10.80
2024-04-26T22:31:29.528Z,10.40
2024-04-26T22:33:57.720Z,8.20
2024-04-26T22:36:25.512Z,6.60
2024-04-26T22:38:53.592Z,5.60
2024-04-26T22:41:25.513Z,8.00
2024-04-26T22:43:54.301Z,7.70
2024-04-26T22:46:22.317Z,6.20
2024-04-26T22:48:50.137Z,6.10
2024-04-26T22:51:18.805Z,8.50
2024-04-26T22:53:46.950Z,6.40
2024-04-26T22:56:15.526Z,5.50
2024-04-26T22:58:44.779Z,7.60
2024-04-26T23:01:14.423Z,6.60
2024-04-26T23:03:42.575Z,7.50
2024-04-26T23:06:11.573Z,6.50
2024-04-26T23:08:39.235Z,4.70
2024-04-26T23:11:07.446Z,5.70
2024-04-26T23:13:35.939Z,6.50
2024-04-26T23:16:04.401Z,5.40
2024-04-26T23:18:35.897Z,6.20
2024-04-26T23:21:04.384Z,3.40
2024-04-26T23:23:32.300Z,4.90
2024-04-26T23:26:00.970Z,5.20
2024-04-26T23:28:29.039Z,6.40
2024-04-26T23:30:57.172Z,4.40
2024-04-26T23:33:25.350Z,4.00
2024-04-26T23:35:53.583Z,5.50
2024-04-26T23:38:21.466Z,3.60
2024-04-26T23:40:49.853Z,5.40
2024-04-26T23:43:18.000Z,5.60
2024-04-26T23:45:45.867Z,4.90
2024-04-26T23:48:13.842Z,8.40
2024-04-26T23:50:41.937Z,5.90
2024-04-26T23:53:09.942Z,6.40
2024-04-26T23:55:37.969Z,4.10
2024-04-26T23:58:08.064Z,4.10
